createdAt,value
2018-03-28T00:00:29.808Z,97118.54
2018-03-28T00:01:01.439Z,97117.86
2018-03-28T00:01:33.067Z,97118.80
2018-03-28T00:02:04.702Z,97118.80
2018-03-28T00:02:36.329Z,97121.28
2018-03-28T00:03:07.953Z,97115.31
2018-03-28T00:03:39.582Z,97116.61
2018-03-28T00:04:11.207Z,97119.04
2018-03-28T00:04:42.835Z,97121.93
2018-03-28T00:05:14.462Z,97111.33
2018-03-28T00:05:46.129Z,97118.04
2018-03-28T00:06:17.754Z,97113.44
2018-03-28T00:06:49.378Z,97112.95
2018-03-28T00:07:21.005Z,97116.33
2018-03-28T00:07:52.634Z,97108.61
2018-03-28T00:08:24.258Z,97107.82
2018-03-28T00:08:55.886Z,97105.13
2018-03-28T00:09:27.510Z,97108.49
2018-03-28T00:09:59.133Z,97103.81
2018-03-28T00:10:30.806Z,97108.49
2018-03-28T00:11:02.466Z,97101.27
2018-03-28T00:11:34.111Z,97105.45
2018-03-28T00:12:05.740Z,97102.91
2018-03-28T00:12:37.362Z,97101.97
2018-03-28T00:13:08.990Z,97098.98
2018-03-28T00:13:40.618Z,97098.14
2018-03-28T00:14:12.245Z,97099.31
2018-03-28T00:14:43.870Z,97092.62
2018-03-28T00:15:15.489Z,97100.26
2018-03-28T00:15:47.120Z,97093.88
2018-03-28T00:16:18.755Z,97089.72
2018-03-28T00:16:50.389Z,97094.75
2018-03-28T00:17:22.009Z,97097.86
2018-03-28T00:17:53.634Z,97088.86
2018-03-28T00:18:25.262Z,97091.43
2018-03-28T00:18:56.887Z,97094.80
2018-03-28T00:19:28.510Z,97092.20
2018-03-28T00:20:00.134Z,97092.52
2018-03-28T00:20:31.766Z,97091.77
2018-03-28T00:21:03.442Z,97085.83
2018-03-28T00:21:35.066Z,97094.75
2018-03-28T00:22:06.685Z,97091.48
2018-03-28T00:22:38.309Z,97089.70
2018-03-28T00:23:09.967Z,97090.91
2018-03-28T00:23:41.604Z,97084.92
2018-03-28T00:24:13.238Z,97088.36
2018-03-28T00:24:44.862Z,97083.41
2018-03-28T00:25:16.526Z,97087.52
2018-03-28T00:25:48.158Z,97087.17
2018-03-28T00:26:19.786Z,97085.54
2018-03-28T00:26:51.444Z,97083.84
2018-03-28T00:27:23.070Z,97083.08
2018-03-28T00:27:54.694Z,97079.20
2018-03-28T00:28:26.326Z,97081.84
2018-03-28T00:28:57.954Z,97081.89
2018-03-28T00:29:29.577Z,97079.80
2018-03-28T00:30:01.206Z,97078.64
2018-03-28T00:30:32.838Z,97080.35
2018-03-28T00:31:04.466Z,97082.47
2018-03-28T00:31:36.094Z,97084.59
2018-03-28T00:32:07.726Z,97082.00
2018-03-28T00:32:39.350Z,97080.72
2018-03-28T00:33:10.979Z,97080.23
2018-03-28T00:33:42.602Z,97079.34
2018-03-28T00:34:14.238Z,97081.52
2018-03-28T00:34:45.916Z,97075.61
2018-03-28T00:35:17.587Z,97075.95
2018-03-28T00:35:49.218Z,97070.02
2018-03-28T00:36:20.842Z,97078.11
2018-03-28T00:36:52.465Z,97076.11
2018-03-28T00:37:24.095Z,97076.88
2018-03-28T00:37:55.727Z,97076.14
2018-03-28T00:38:27.398Z,97071.90
2018-03-28T00:38:59.023Z,97075.03
2018-03-28T00:39:30.655Z,97071.80
2018-03-28T00:40:02.326Z,97073.86
2018-03-28T00:40:33.949Z,97070.47
2018-03-28T00:41:05.618Z,97071.38
2018-03-28T00:41:37.241Z,97073.48
2018-03-28T00:42:08.862Z,97068.82
2018-03-28T00:42:40.490Z,97068.50
2018-03-28T00:43:12.120Z,97066.89
2018-03-28T00:43:43.779Z,97061.88
2018-03-28T00:44:15.412Z,97065.22
2018-03-28T00:44:47.038Z,97067.39
2018-03-28T00:45:18.722Z,97066.12
2018-03-28T00:45:50.346Z,97063.18
2018-03-28T00:46:21.982Z,97067.83
2018-03-28T00:46:53.610Z,97063.28
2018-03-28T00:47:25.234Z,97071.67
2018-03-28T00:47:56.862Z,97067.48
2018-03-28T00:48:28.486Z,97063.70
2018-03-28T00:49:00.111Z,97064.94
2018-03-28T00:49:31.742Z,97061.23
2018-03-28T00:50:03.372Z,97063.78
2018-03-28T00:50:35.051Z,97060.53
2018-03-28T00:51:06.678Z,97053.39
2018-03-28T00:51:38.301Z,97059.70
2018-03-28T00:52:09.933Z,97056.81
2018-03-28T00:52:41.563Z,97055.47
2018-03-28T00:53:13.190Z,97054.16
2018-03-28T00:53:44.813Z,97053.73
2018-03-28T00:54:16.442Z,97053.74
2018-03-28T00:54:48.073Z,97053.39
2018-03-28T00:55:19.703Z,97046.27
2018-03-28T00:55:51.374Z,97046.63
2018-03-28T00:56:23.002Z,97046.63
2018-03-28T00:56:54.639Z,97053.83
2018-03-28T00:57:26.266Z,97048.33
2018-03-28T00:57:57.899Z,97049.15
2018-03-28T00:58:29.522Z,97051.11
2018-03-28T00:59:01.150Z,97042.21
2018-03-28T00:59:32.830Z,97049.83
2018-03-28T01:00:04.454Z,97051.11
2018-03-28T01:00:36.078Z,97049.34
2018-03-28T01:01:07.711Z,97054.02
2018-03-28T01:01:39.342Z,97048.92
2018-03-28T01:02:10.977Z,97049.26
2018-03-28T01:02:42.606Z,97042.52
2018-03-28T01:03:14.225Z,97050.84
2018-03-28T01:03:45.856Z,97047.00
2018-03-28T01:04:17.485Z,97041.08
2018-03-28T01:04:49.166Z,97045.23
2018-03-28T01:05:20.790Z,97039.78
2018-03-28T01:05:52.414Z,97037.99
2018-03-28T01:06:24.047Z,97042.25
2018-03-28T01:06:55.670Z,97037.23
2018-03-28T01:07:27.299Z,97034.27
2018-03-28T01:07:58.921Z,97042.31
2018-03-28T01:08:30.543Z,97033.01
2018-03-28T01:09:02.166Z,97032.14
2018-03-28T01:09:33.790Z,97026.19
2018-03-28T01:10:05.420Z,97032.38
2018-03-28T01:10:37.076Z,97037.41
2018-03-28T01:11:08.694Z,97031.37
2018-03-28T01:11:40.318Z,97026.34
2018-03-28T01:12:11.946Z,97032.69
2018-03-28T01:12:43.614Z,97028.03
2018-03-28T01:13:15.242Z,97027.96
2018-03-28T01:13:46.865Z,97024.64
2018-03-28T01:14:18.494Z,97025.05
2018-03-28T01:14:50.121Z,97029.30
2018-03-28T01:15:21.750Z,97028.82
2018-03-28T01:15:53.373Z,97024.58
2018-03-28T01:16:25.002Z,97026.25
2018-03-28T01:16:56.626Z,97026.35
2018-03-28T01:17:28.276Z,97028.47
2018-03-28T01:17:59.907Z,97028.48
2018-03-28T01:18:31.603Z,97025.06
2018-03-28T01:19:03.238Z,97022.52
2018-03-28T01:19:34.921Z,97027.96
2018-03-28T01:20:06.553Z,97025.52
2018-03-28T01:20:38.173Z,97030.90
2018-03-28T01:21:09.793Z,97025.40
2018-03-28T01:21:41.423Z,97025.40
2018-03-28T01:22:13.046Z,97024.05
2018-03-28T01:22:44.674Z,97027.44
2018-03-28T01:23:16.298Z,97021.98
2018-03-28T01:23:47.926Z,97027.01
2018-03-28T01:24:19.550Z,97020.62
2018-03-28T01:24:51.184Z,97019.81
2018-03-28T01:25:22.814Z,97024.89
2018-03-28T01:25:54.450Z,97029.54
2018-03-28T01:26:26.074Z,97019.38
2018-03-28T01:26:57.702Z,97021.51
2018-03-28T01:27:29.327Z,97024.00
2018-03-28T01:28:00.989Z,97020.11
2018-03-28T01:28:32.630Z,97020.09
2018-03-28T01:29:04.261Z,97018.81
2018-03-28T01:29:35.883Z,97024.19
2018-03-28T01:30:07.511Z,97020.29
2018-03-28T01:30:39.138Z,97018.23
2018-03-28T01:31:10.763Z,97020.69
2018-03-28T01:31:42.394Z,97024.95
2018-03-28T01:32:14.066Z,97016.88
2018-03-28T01:32:45.697Z,97018.16
2018-03-28T01:33:17.326Z,97021.55
2018-03-28T01:33:48.999Z,97008.47
2018-03-28T01:34:20.621Z,97018.58
2018-03-28T01:34:52.251Z,97020.10
2018-03-28T01:35:23.874Z,97018.81
2018-03-28T01:35:55.499Z,97011.58
2018-03-28T01:36:27.123Z,97014.97
2018-03-28T01:36:58.763Z,97016.67
2018-03-28T01:37:30.395Z,97013.74
2018-03-28T01:38:02.029Z,97018.49
2018-03-28T01:38:33.694Z,97015.42
2018-03-28T01:39:05.317Z,97010.44
2018-03-28T01:39:36.942Z,97014.35
2018-03-28T01:40:08.570Z,97015.11
2018-03-28T01:40:40.194Z,97010.41
2018-03-28T01:41:11.818Z,97008.20
2018-03-28T01:41:43.450Z,97013.80
2018-03-28T01:42:15.075Z,97012.95
2018-03-28T01:42:46.698Z,97009.15
2018-03-28T01:43:18.322Z,97011.24
2018-03-28T01:43:49.946Z,97009.92
2018-03-28T01:44:21.572Z,97004.77
2018-03-28T01:44:53.205Z,97010.56
2018-03-28T01:45:24.830Z,97006.72
2018-03-28T01:45:56.453Z,97008.44
2018-03-28T01:46:28.134Z,97002.97
2018-03-28T01:46:59.801Z,97002.93
2018-03-28T01:47:31.430Z,97002.59
2018-03-28T01:48:03.054Z,97001.74
2018-03-28T01:48:34.677Z,97002.64
2018-03-28T01:49:06.377Z,97003.45
2018-03-28T01:49:38.049Z,97001.41
2018-03-28T01:50:09.675Z,97004.73
2018-03-28T01:50:41.301Z,96995.41
2018-03-28T01:51:12.930Z,97000.17
2018-03-28T01:51:44.570Z,97001.55
2018-03-28T01:52:16.210Z,96996.94
2018-03-28T01:52:47.842Z,96996.00
2018-03-28T01:53:19.470Z,97000.66
2018-03-28T01:53:51.101Z,97003.30
2018-03-28T01:54:22.755Z,96995.68
2018-03-28T01:54:54.422Z,97000.47
2018-03-28T01:55:26.046Z,96996.73
2018-03-28T01:55:57.670Z,96995.54
2018-03-28T01:56:29.294Z,97002.66
2018-03-28T01:57:00.918Z,97002.73
2018-03-28T01:57:32.582Z,97000.20
2018-03-28T01:58:04.210Z,97000.97
2018-03-28T01:58:35.833Z,97000.20
2018-03-28T01:59:07.458Z,97000.14
2018-03-28T01:59:39.081Z,96996.47
2018-03-28T02:00:10.710Z,96997.43
2018-03-28T02:00:42.337Z,96996.23
2018-03-28T02:01:14.007Z,96992.80
2018-03-28T02:01:45.636Z,96994.17
2018-03-28T02:02:17.266Z,96995.48
2018-03-28T02:02:48.894Z,96997.23
2018-03-28T02:03:20.518Z,96998.45
2018-03-28T02:03:52.199Z,96994.61
2018-03-28T02:04:23.826Z,96993.84
2018-03-28T02:04:55.449Z,96997.16
2018-03-28T02:05:27.078Z,96989.58
2018-03-28T02:05:58.706Z,96993.84
2018-03-28T02:06:30.342Z,96995.20
2018-03-28T02:07:01.971Z,96991.90
2018-03-28T02:07:33.606Z,96993.23
2018-03-28T02:08:05.230Z,96992.44
2018-03-28T02:08:36.854Z,96989.89
2018-03-28T02:09:08.478Z,96991.25
2018-03-28T02:09:40.103Z,96989.16
2018-03-28T02:10:11.794Z,96983.79
2018-03-28T02:10:43.389Z,96986.69
2018-03-28T02:11:15.010Z,96986.67
2018-03-28T02:11:46.638Z,96983.80
2018-03-28T02:12:18.310Z,96989.73
2018-03-28T02:12:49.938Z,96982.97
2018-03-28T02:13:21.570Z,96984.74
2018-03-28T02:13:53.194Z,96983.88
2018-03-28T02:14:24.826Z,96986.00
2018-03-28T02:14:56.502Z,96985.95
2018-03-28T02:15:28.126Z,96981.98
2018-03-28T02:15:59.751Z,96982.46
2018-03-28T02:16:31.379Z,96985.48
2018-03-28T02:17:03.002Z,96986.81
2018-03-28T02:17:34.633Z,96982.70
2018-03-28T02:18:06.262Z,96975.16
2018-03-28T02:18:37.887Z,96973.11
2018-03-28T02:19:09.514Z,96980.78
2018-03-28T02:19:41.183Z,96982.14
2018-03-28T02:20:12.838Z,96977.97
2018-03-28T02:20:44.478Z,96981.39
2018-03-28T02:21:16.109Z,96973.83
2018-03-28T02:21:47.742Z,96978.15
2018-03-28T02:22:19.366Z,96975.18
2018-03-28T02:22:51.003Z,96977.39
2018-03-28T02:23:22.635Z,96982.01
2018-03-28T02:23:54.262Z,96972.23
2018-03-28T02:24:25.890Z,96974.38
2018-03-28T02:24:57.570Z,96971.83
2018-03-28T02:25:29.194Z,96973.51
2018-03-28T02:26:00.821Z,96970.94
2018-03-28T02:26:32.450Z,96976.41
2018-03-28T02:27:04.073Z,96974.66
2018-03-28T02:27:35.702Z,96965.77
2018-03-28T02:28:07.338Z,96970.94
2018-03-28T02:28:38.966Z,96973.09
2018-03-28T02:29:10.598Z,96966.30
2018-03-28T02:29:42.231Z,96965.44
2018-03-28T02:30:13.898Z,96968.01
2018-03-28T02:30:45.531Z,96967.55
2018-03-28T02:31:17.162Z,96961.62
2018-03-28T02:31:48.830Z,96965.34
2018-03-28T02:32:20.456Z,96962.34
2018-03-28T02:32:52.086Z,96963.61
2018-03-28T02:33:23.714Z,96962.80
2018-03-28T02:33:55.346Z,96958.16
2018-03-28T02:34:26.979Z,96961.94
2018-03-28T02:34:58.604Z,96962.36
2018-03-28T02:35:30.226Z,96962.30
2018-03-28T02:36:01.928Z,96960.55
2018-03-28T02:36:33.610Z,96953.23
2018-03-28T02:37:05.243Z,96961.17
2018-03-28T02:37:36.873Z,96958.95
2018-03-28T02:38:08.498Z,96958.48
2018-03-28T02:38:40.123Z,96957.23
2018-03-28T02:39:11.751Z,96958.84
2018-03-28T02:39:43.395Z,96962.66
2018-03-28T02:40:15.050Z,96958.31
2018-03-28T02:40:46.679Z,96964.14
2018-03-28T02:41:18.358Z,96959.63
2018-03-28T02:41:49.982Z,96965.53
2018-03-28T02:42:21.610Z,96957.09
2018-03-28T02:42:53.250Z,96957.91
2018-03-28T02:43:24.880Z,96957.20
2018-03-28T02:43:56.502Z,96955.69
2018-03-28T02:44:28.131Z,96963.12
2018-03-28T02:44:59.759Z,96959.05
2018-03-28T02:45:31.387Z,96960.09
2018-03-28T02:46:03.015Z,96954.46
2018-03-28T02:46:34.682Z,96957.50
2018-03-28T02:47:06.355Z,96958.47
2018-03-28T02:47:37.982Z,96953.80
2018-03-28T02:48:09.615Z,96958.91
2018-03-28T02:48:41.267Z,96951.68
2018-03-28T02:49:12.891Z,96959.31
2018-03-28T02:49:44.515Z,96958.89
2018-03-28T02:50:16.139Z,96950.91
2018-03-28T02:50:47.766Z,96948.19
2018-03-28T02:51:19.395Z,96947.67
2018-03-28T02:51:51.070Z,96951.87
2018-03-28T02:52:22.703Z,96946.28
2018-03-28T02:52:54.362Z,96939.50
2018-03-28T02:53:25.989Z,96941.16
2018-03-28T02:53:57.619Z,96943.48
2018-03-28T02:54:29.258Z,96937.55
2018-03-28T02:55:00.883Z,96942.13
2018-03-28T02:55:32.506Z,96940.09
2018-03-28T02:56:04.143Z,96940.51
2018-03-28T02:56:35.778Z,96936.75
2018-03-28T02:57:07.450Z,96939.34
2018-03-28T02:57:39.074Z,96937.64
2018-03-28T02:58:10.751Z,96940.25
2018-03-28T02:58:42.374Z,96940.72
2018-03-28T02:59:14.003Z,96945.91
2018-03-28T02:59:45.631Z,96942.94
2018-03-28T03:00:17.348Z,96938.91
2018-03-28T03:00:48.983Z,96943.75
2018-03-28T03:01:20.614Z,96939.31
2018-03-28T03:01:52.286Z,96944.38
2018-03-28T03:02:23.922Z,96939.16
2018-03-28T03:02:55.551Z,96935.44
2018-03-28T03:03:27.223Z,96937.53
2018-03-28T03:03:58.855Z,96932.09
2018-03-28T03:04:30.486Z,96935.94
2018-03-28T03:05:02.114Z,96937.33
2018-03-28T03:05:33.744Z,96937.30
2018-03-28T03:06:05.373Z,96935.68
2018-03-28T03:06:37.002Z,96931.52
2018-03-28T03:07:08.630Z,96934.46
2018-03-28T03:07:40.298Z,96932.02
2018-03-28T03:08:11.926Z,96934.09
2018-03-28T03:08:43.550Z,96937.66
2018-03-28T03:09:15.198Z,96935.44
2018-03-28T03:09:46.822Z,96934.17
2018-03-28T03:10:18.489Z,96934.61
2018-03-28T03:10:50.118Z,96929.92
2018-03-28T03:11:21.741Z,96933.66
2018-03-28T03:11:53.374Z,96934.61
2018-03-28T03:12:25.007Z,96931.27
2018-03-28T03:12:56.630Z,96930.78
2018-03-28T03:13:28.254Z,96930.80
2018-03-28T03:13:59.883Z,96929.51
2018-03-28T03:14:31.546Z,96928.73
2018-03-28T03:15:03.174Z,96928.30
2018-03-28T03:15:34.806Z,96925.37
2018-03-28T03:16:06.430Z,96930.10
2018-03-28T03:16:38.055Z,96925.94
2018-03-28T03:17:09.686Z,96926.23
2018-03-28T03:17:41.310Z,96925.94
2018-03-28T03:18:12.946Z,96923.87
2018-03-28T03:18:44.582Z,96925.55
2018-03-28T03:19:16.211Z,96922.58
2018-03-28T03:19:47.843Z,96925.12
2018-03-28T03:20:19.470Z,96924.27
2018-03-28T03:20:51.139Z,96926.81
2018-03-28T03:21:22.766Z,96921.39
2018-03-28T03:21:54.390Z,96926.17
2018-03-28T03:22:26.018Z,96916.05
2018-03-28T03:22:57.650Z,96921.59
2018-03-28T03:23:29.276Z,96920.33
2018-03-28T03:24:00.906Z,96920.41
2018-03-28T03:24:32.530Z,96925.80
2018-03-28T03:25:04.149Z,96921.18
2018-03-28T03:25:35.826Z,96915.73
2018-03-28T03:26:07.449Z,96920.90
2018-03-28T03:26:39.078Z,96920.90
2018-03-28T03:27:10.707Z,96922.63
2018-03-28T03:27:42.330Z,96922.21
2018-03-28T03:28:13.963Z,96922.31
2018-03-28T03:28:45.590Z,96923.15
2018-03-28T03:29:17.218Z,96922.30
2018-03-28T03:29:48.838Z,96919.83
2018-03-28T03:30:20.475Z,96921.96
2018-03-28T03:30:52.143Z,96922.09
2018-03-28T03:31:23.779Z,96911.54
2018-03-28T03:31:55.406Z,96918.70
2018-03-28T03:32:27.030Z,96916.14
2018-03-28T03:32:58.654Z,96920.02
2018-03-28T03:33:30.278Z,96918.78
2018-03-28T03:34:01.951Z,96914.63
2018-03-28T03:34:33.573Z,96909.53
2018-03-28T03:35:05.198Z,96918.45
2018-03-28T03:35:36.825Z,96921.44
2018-03-28T03:36:08.496Z,96909.53
2018-03-28T03:36:40.130Z,96913.41
2018-03-28T03:37:11.755Z,96908.69
2018-03-28T03:37:43.382Z,96907.91
2018-03-28T03:38:15.011Z,96914.30
2018-03-28T03:38:46.638Z,96916.05
2018-03-28T03:39:18.306Z,96916.92
2018-03-28T03:39:49.930Z,96912.33
2018-03-28T03:40:21.562Z,96911.58
2018-03-28T03:40:53.190Z,96914.55
2018-03-28T03:41:24.862Z,96916.34
2018-03-28T03:41:56.486Z,96913.73
2018-03-28T03:42:28.110Z,96918.89
2018-03-28T03:42:59.744Z,96915.92
2018-03-28T03:43:31.370Z,96912.09
2018-03-28T03:44:02.998Z,96914.67
2018-03-28T03:44:34.622Z,96910.58
2018-03-28T03:45:06.247Z,96916.55
2018-03-28T03:45:37.871Z,96915.72
2018-03-28T03:46:09.496Z,96916.14
2018-03-28T03:46:41.166Z,96912.32
2018-03-28T03:47:12.796Z,96920.36
2018-03-28T03:47:44.419Z,96918.22
2018-03-28T03:48:16.049Z,96917.84
2018-03-28T03:48:47.674Z,96919.97
2018-03-28T03:49:19.306Z,96919.61
2018-03-28T03:49:50.932Z,96921.72
2018-03-28T03:50:22.558Z,96919.20
2018-03-28T03:50:54.185Z,96920.47
2018-03-28T03:51:25.810Z,96919.27
2018-03-28T03:51:57.486Z,96918.42
2018-03-28T03:52:29.110Z,96920.23
2018-03-28T03:53:00.742Z,96918.59
2018-03-28T03:53:32.370Z,96918.62
2018-03-28T03:54:03.998Z,96924.56
2018-03-28T03:54:35.624Z,96925.42
2018-03-28T03:55:07.254Z,96923.31
2018-03-28T03:55:38.883Z,96919.89
2018-03-28T03:56:10.511Z,96923.28
2018-03-28T03:56:42.134Z,96919.45
2018-03-28T03:57:13.806Z,96923.72
2018-03-28T03:57:45.430Z,96923.36
2018-03-28T03:58:17.098Z,96915.23
2018-03-28T03:58:48.755Z,96918.22
2018-03-28T03:59:20.387Z,96923.72
2018-03-28T03:59:52.018Z,96916.91
2018-03-28T04:00:23.642Z,96918.62
2018-03-28T04:00:55.274Z,96917.36
2018-03-28T04:01:26.898Z,96916.48
2018-03-28T04:01:58.527Z,96907.24
2018-03-28T04:02:30.154Z,96912.23
2018-03-28T04:03:01.778Z,96914.37
2018-03-28T04:03:33.402Z,96915.63
2018-03-28T04:04:05.026Z,96913.50
2018-03-28T04:04:36.650Z,96916.89
2018-03-28T04:05:08.278Z,96920.21
2018-03-28T04:05:39.908Z,96918.19
2018-03-28T04:06:11.538Z,96925.81
2018-03-28T04:06:43.162Z,96915.63
2018-03-28T04:07:14.786Z,96915.22
2018-03-28T04:07:46.446Z,96919.44
2018-03-28T04:08:18.078Z,96913.96
2018-03-28T04:08:49.710Z,96917.77
2018-03-28T04:09:21.338Z,96914.80
2018-03-28T04:09:52.970Z,96914.37
2018-03-28T04:10:24.594Z,96915.23
2018-03-28T04:10:56.226Z,96911.90
2018-03-28T04:11:27.854Z,96912.77
2018-03-28T04:11:59.482Z,96913.67
2018-03-28T04:12:31.102Z,96912.03
2018-03-28T04:13:02.762Z,96921.02
2018-03-28T04:13:34.425Z,96916.79
2018-03-28T04:14:06.054Z,96917.62
2018-03-28T04:14:37.679Z,96918.55
2018-03-28T04:15:09.346Z,96922.73
2018-03-28T04:15:40.975Z,96916.44
2018-03-28T04:16:12.602Z,96915.58
2018-03-28T04:16:44.222Z,96919.82
2018-03-28T04:17:15.850Z,96915.59
2018-03-28T04:17:47.474Z,96919.90
2018-03-28T04:18:19.103Z,96918.22
2018-03-28T04:18:50.727Z,96911.94
2018-03-28T04:19:22.359Z,96914.80
2018-03-28T04:19:54.026Z,96916.08
2018-03-28T04:20:25.646Z,96916.45
2018-03-28T04:20:57.270Z,96915.64
2018-03-28T04:21:28.898Z,96919.47
2018-03-28T04:22:00.526Z,96926.62
2018-03-28T04:22:32.159Z,96921.53
2018-03-28T04:23:03.787Z,96918.80
2018-03-28T04:23:35.415Z,96920.09
2018-03-28T04:24:07.042Z,96918.39
2018-03-28T04:24:38.666Z,96916.17
2018-03-28T04:25:10.289Z,96922.52
2018-03-28T04:25:41.922Z,96922.94
2018-03-28T04:26:13.542Z,96919.86
2018-03-28T04:26:45.166Z,96916.80
2018-03-28T04:27:16.790Z,96917.56
2018-03-28T04:27:48.415Z,96925.48
2018-03-28T04:28:20.040Z,96921.97
2018-03-28T04:28:51.666Z,96914.67
2018-03-28T04:29:23.294Z,96921.00
2018-03-28T04:29:54.969Z,96915.30
2018-03-28T04:30:26.658Z,96917.17
2018-03-28T04:30:58.287Z,96909.84
2018-03-28T04:31:29.912Z,96919.06
2018-03-28T04:32:01.538Z,96912.52
2018-03-28T04:32:33.214Z,96914.87
2018-03-28T04:33:04.817Z,96915.14
2018-03-28T04:33:36.446Z,96915.80
2018-03-28T04:34:08.084Z,96910.14
2018-03-28T04:34:39.710Z,96913.81
2018-03-28T04:35:11.338Z,96908.96
2018-03-28T04:35:43.021Z,96913.41
2018-03-28T04:36:14.650Z,96913.42
2018-03-28T04:36:46.275Z,96911.59
2018-03-28T04:37:17.906Z,96913.14
2018-03-28T04:37:49.534Z,96911.91
2018-03-28T04:38:21.157Z,96917.38
2018-03-28T04:38:52.787Z,96916.50
2018-03-28T04:39:24.418Z,96916.44
2018-03-28T04:39:56.046Z,96915.03
2018-03-28T04:40:27.709Z,96916.39
2018-03-28T04:40:59.333Z,96913.42
2018-03-28T04:41:30.962Z,96916.30
2018-03-28T04:42:02.598Z,96913.31
2018-03-28T04:42:34.228Z,96913.24
2018-03-28T04:43:05.858Z,96919.60
2018-03-28T04:43:37.478Z,96914.94
2018-03-28T04:44:09.101Z,96915.80
2018-03-28T04:44:40.730Z,96914.08
2018-03-28T04:45:12.394Z,96916.29
2018-03-28T04:45:44.018Z,96920.57
2018-03-28T04:46:15.646Z,96918.25
2018-03-28T04:46:47.271Z,96916.13
2018-03-28T04:47:18.895Z,96922.02
2018-03-28T04:47:50.518Z,96919.22
2018-03-28T04:48:22.146Z,96920.80
2018-03-28T04:48:53.774Z,96924.28
2018-03-28T04:49:25.402Z,96921.33
2018-03-28T04:49:57.070Z,96920.45
2018-03-28T04:50:28.731Z,96921.33
2018-03-28T04:51:00.402Z,96917.14
2018-03-28T04:51:32.074Z,96921.41
2018-03-28T04:52:03.706Z,96922.72
2018-03-28T04:52:35.329Z,96918.12
2018-03-28T04:53:06.958Z,96916.52
2018-03-28T04:53:38.587Z,96913.58
2018-03-28T04:54:10.210Z,96913.97
2018-03-28T04:54:41.839Z,96918.67
2018-03-28T04:55:13.470Z,96920.88
2018-03-28T04:55:45.103Z,96923.45
2018-03-28T04:56:16.729Z,96924.17
2018-03-28T04:56:48.394Z,96924.69
2018-03-28T04:57:20.018Z,96932.34
2018-03-28T04:57:51.646Z,96923.96
2018-03-28T04:58:23.274Z,96931.30
2018-03-28T04:58:54.898Z,96920.42
2018-03-28T04:59:26.526Z,96919.27
2018-03-28T04:59:58.155Z,96927.89
2018-03-28T05:00:29.787Z,96924.66
2018-03-28T05:01:01.463Z,96928.48
2018-03-28T05:01:33.086Z,96927.70
2018-03-28T05:02:04.716Z,96928.14
2018-03-28T05:02:36.408Z,96923.11
2018-03-28T05:03:08.054Z,96918.56
2018-03-28T05:03:39.687Z,96916.95
2018-03-28T05:04:11.343Z,96921.63
2018-03-28T05:04:42.969Z,96923.41
2018-03-28T05:05:14.599Z,96905.80
2018-03-28T05:05:46.222Z,96917.45
2018-03-28T05:06:17.842Z,96911.19
2018-03-28T05:06:49.465Z,96908.64
2018-03-28T05:07:21.094Z,96910.84
2018-03-28T05:07:52.758Z,96908.40
2018-03-28T05:08:24.377Z,96908.85
2018-03-28T05:08:56.008Z,96904.66
2018-03-28T05:09:27.641Z,96905.99
2018-03-28T05:09:59.270Z,96906.04
2018-03-28T05:10:30.898Z,96901.47
2018-03-28T05:11:02.526Z,96901.91
2018-03-28T05:11:34.197Z,96901.13
2018-03-28T05:12:05.821Z,96899.44
2018-03-28T05:12:37.447Z,96894.84
2018-03-28T05:13:09.070Z,96895.74
2018-03-28T05:13:40.694Z,96896.58
2018-03-28T05:14:12.314Z,96897.09
2018-03-28T05:14:43.946Z,96898.81
2018-03-28T05:15:15.576Z,96896.75
2018-03-28T05:15:47.262Z,96894.13
2018-03-28T05:16:18.857Z,96890.81
2018-03-28T05:16:50.477Z,96888.80
2018-03-28T05:17:22.101Z,96882.55
2018-03-28T05:17:53.776Z,96883.80
2018-03-28T05:18:25.408Z,96879.64
2018-03-28T05:18:57.039Z,96883.53
2018-03-28T05:19:28.707Z,96884.81
2018-03-28T05:20:00.338Z,96884.44
2018-03-28T05:20:31.962Z,96883.23
2018-03-28T05:21:03.597Z,96880.79
2018-03-28T05:21:35.224Z,96879.52
2018-03-28T05:22:06.855Z,96882.98
2018-03-28T05:22:38.479Z,96886.04
2018-03-28T05:23:10.150Z,96887.83
2018-03-28T05:23:41.778Z,96881.83
2018-03-28T05:24:13.402Z,96882.22
2018-03-28T05:24:45.034Z,96872.91
2018-03-28T05:25:16.663Z,96881.13
2018-03-28T05:25:48.285Z,96885.86
2018-03-28T05:26:19.915Z,96884.13
2018-03-28T05:26:51.537Z,96880.70
2018-03-28T05:27:23.159Z,96884.56
2018-03-28T05:27:54.826Z,96879.47
2018-03-28T05:28:26.451Z,96878.20
2018-03-28T05:28:58.078Z,96888.03
2018-03-28T05:29:29.759Z,96888.54
2018-03-28T05:30:01.419Z,96880.93
2018-03-28T05:30:33.058Z,96886.88
2018-03-28T05:31:04.685Z,96880.52
2018-03-28T05:31:36.305Z,96879.76
2018-03-28T05:32:07.925Z,96877.70
2018-03-28T05:32:39.550Z,96882.74
2018-03-28T05:33:11.237Z,96874.81
2018-03-28T05:33:42.874Z,96876.45
2018-03-28T05:34:14.522Z,96874.33
2018-03-28T05:34:46.151Z,96869.73
2018-03-28T05:35:17.782Z,96873.48
2018-03-28T05:35:49.406Z,96873.88
2018-03-28T05:36:21.039Z,96879.41
2018-03-28T05:36:52.667Z,96874.30
2018-03-28T05:37:24.294Z,96873.47
2018-03-28T05:37:55.913Z,96873.54
2018-03-28T05:38:27.554Z,96877.31
2018-03-28T05:38:59.185Z,96873.98
2018-03-28T05:39:30.812Z,96877.38
2018-03-28T05:40:04.319Z,96871.08
2018-03-28T05:40:36.035Z,96872.28
2018-03-28T05:41:07.726Z,96866.85
2018-03-28T05:41:39.349Z,96869.44
2018-03-28T05:42:10.978Z,96865.94
2018-03-28T05:42:42.661Z,96863.79
2018-03-28T05:43:14.287Z,96862.43
2018-03-28T05:43:45.911Z,96863.64
2018-03-28T05:44:17.539Z,96860.23
2018-03-28T05:44:49.166Z,96858.11
2018-03-28T05:45:20.801Z,96861.08
2018-03-28T05:45:52.426Z,96853.08
2018-03-28T05:46:24.058Z,96854.70
2018-03-28T05:46:55.690Z,96855.98
2018-03-28T05:47:27.314Z,96852.08
2018-03-28T05:47:58.986Z,96853.68
2018-03-28T05:48:30.615Z,96856.62
2018-03-28T05:49:02.299Z,96852.73
2018-03-28T05:49:33.930Z,96853.98
2018-03-28T05:50:05.554Z,96855.61
2018-03-28T05:50:37.184Z,96857.20
2018-03-28T05:51:08.814Z,96853.81
2018-03-28T05:51:40.450Z,96862.29
2018-03-28T05:52:12.074Z,96856.36
2018-03-28T05:52:43.700Z,96860.52
2018-03-28T05:53:15.325Z,96854.98
2018-03-28T05:53:46.945Z,96856.74
2018-03-28T05:54:18.687Z,96859.64
2018-03-28T05:54:50.309Z,96858.28
2018-03-28T05:55:21.978Z,96858.68
2018-03-28T05:55:53.619Z,96857.86
2018-03-28T05:56:25.266Z,96861.17
2018-03-28T05:56:56.894Z,96858.17
2018-03-28T05:57:28.518Z,96863.60
2018-03-28T05:58:00.147Z,96864.45
2018-03-28T05:58:31.774Z,96858.86
2018-03-28T05:59:03.401Z,96862.66
2018-03-28T05:59:35.026Z,96862.16
2018-03-28T06:00:06.650Z,96862.64
2018-03-28T06:00:38.278Z,96861.28
2018-03-28T06:01:09.902Z,96870.98
2018-03-28T06:01:41.526Z,96863.73
2018-03-28T06:02:13.165Z,96870.08
2018-03-28T06:02:44.790Z,96865.35
2018-03-28T06:03:16.418Z,96866.61
2018-03-28T06:03:48.086Z,96870.41
2018-03-28T06:04:19.718Z,96871.70
2018-03-28T06:04:51.342Z,96865.27
2018-03-28T06:05:22.970Z,96860.60
2018-03-28T06:05:54.597Z,96859.73
2018-03-28T06:06:26.238Z,96860.13
2018-03-28T06:06:57.862Z,96860.92
2018-03-28T06:07:29.516Z,96863.86
2018-03-28T06:08:01.146Z,96864.70
2018-03-28T06:08:32.789Z,96860.87
2018-03-28T06:09:04.462Z,96868.77
2018-03-28T06:09:36.135Z,96864.17
2018-03-28T06:10:07.763Z,96866.97
2018-03-28T06:10:39.390Z,96867.84
2018-03-28T06:11:11.014Z,96873.84
2018-03-28T06:11:42.642Z,96875.05